createdAt,value
2018-02-21T00:05:59.689Z,1020.1
2018-02-21T00:17:41.181Z,1020.3
2018-02-21T00:39:07.931Z,1020.3
2018-02-21T00:51:32.886Z,1020.3
2018-02-21T01:04:36.725Z,1020.3
2018-02-21T01:17:08.473Z,1020.3
2018-02-21T01:28:56.660Z,1020.2
2018-02-21T01:50:57.967Z,1020.6
2018-02-21T02:01:09.868Z,1020.8
2018-02-21T02:12:34.722Z,1021.0
2018-02-21T02:24:53.655Z,1021.1
2018-02-21T02:36:52.941Z,1021.0
2018-02-21T02:47:36.077Z,1021.1
2018-02-21T03:00:28.925Z,1021.2
2018-02-21T03:13:10.956Z,1021.0
2018-02-21T03:25:01.410Z,1021.2
2018-02-21T03:36:50.646Z,1021.1
2018-02-21T03:47:05.994Z,1021.1
2018-02-21T03:58:06.880Z,1021.0
2018-02-21T04:22:57.058Z,1021.0
2018-02-21T04:36:00.249Z,1020.9
2018-02-21T04:48:58.956Z,1021.0
2018-02-21T05:02:54.365Z,1021.3
2018-02-21T05:15:06.448Z,1021.4
2018-02-21T05:38:01.262Z,1021.6
2018-02-21T05:50:15.044Z,1021.6
2018-02-21T06:03:37.799Z,1021.7
2018-02-21T06:17:17.656Z,1021.8
2018-02-21T06:29:38.662Z,1021.8
2018-02-21T06:42:14.981Z,1021.7
2018-02-21T06:52:27.313Z,1021.7
2018-02-21T07:04:47.704Z,1021.7
2018-02-21T07:17:44.713Z,1021.6
2018-02-21T07:27:59.491Z,1021.8
2018-02-21T07:41:02.058Z,1021.7
2018-02-21T07:56:08.714Z,1022.0
2018-02-21T08:08:13.171Z,1022.1
2018-02-21T08:18:27.523Z,1022.0
2018-02-21T08:28:42.174Z,1021.9
2018-02-21T08:38:54.664Z,1021.9
2018-02-21T08:50:28.002Z,1021.8
2018-02-21T09:01:46.788Z,1021.8
2018-02-21T09:13:42.622Z,1021.7
2018-02-21T09:37:24.772Z,1021.8
2018-02-21T09:47:39.516Z,1021.9
2018-02-21T09:58:01.257Z,1022.1
2018-02-21T10:08:15.290Z,1022.3
2018-02-21T10:19:04.333Z,1022.2
2018-02-21T10:29:18.335Z,1022.1
2018-02-21T10:40:06.667Z,1021.9
2018-02-21T10:50:52.508Z,1021.8
2018-02-21T11:01:38.517Z,1021.6
2018-02-21T11:12:11.453Z,1021.4
2018-02-21T11:22:57.440Z,1021.5
2018-02-21T11:35:17.045Z,1021.2
2018-02-21T11:47:30.785Z,1021.1
2018-02-21T11:57:44.707Z,1021.0
2018-02-21T12:07:59.317Z,1020.9
2018-02-21T12:18:11.338Z,1020.8
2018-02-21T12:28:26.009Z,1020.9
2018-02-21T12:38:50.033Z,1020.8
2018-02-21T12:49:04.526Z,1021.1
2018-02-21T12:59:19.854Z,1020.9
2018-02-21T13:09:36.203Z,1020.8
2018-02-21T13:19:51.387Z,1020.7
2018-02-21T13:30:06.733Z,1020.7
2018-02-21T13:40:21.951Z,1020.7
2018-02-21T13:51:07.816Z,1020.4
2018-02-21T14:01:53.354Z,1020.2
2018-02-21T14:12:08.499Z,1020.3
2018-02-21T14:22:23.591Z,1020.2
2018-02-21T14:32:38.853Z,1020.0
2018-02-21T14:45:00.542Z,1019.9
2018-02-21T14:55:17.672Z,1019.9
2018-02-21T15:05:32.325Z,1020.0
2018-02-21T15:16:32.908Z,1020.0
2018-02-21T15:42:05.446Z,1019.9
2018-02-21T15:52:22.473Z,1019.8
2018-02-21T16:04:05.491Z,1019.8
2018-02-21T16:14:54.278Z,1019.9
2018-02-21T16:26:16.664Z,1020.1
2018-02-21T16:37:08.688Z,1020.1
2018-02-21T16:47:22.687Z,1020.1
2018-02-21T17:08:27.617Z,1020.3
2018-02-21T17:19:44.545Z,1020.4
2018-02-21T17:32:17.496Z,1020.5
2018-02-21T17:43:06.206Z,1020.6
2018-02-21T17:54:29.202Z,1020.6
2018-02-21T18:05:12.818Z,1020.8
2018-02-21T18:28:22.532Z,1020.8
2018-02-21T18:38:49.274Z,1020.9
2018-02-21T18:57:09.174Z,1021.1
2018-02-21T19:09:30.972Z,1021.0
2018-02-21T19:20:10.104Z,1021.2
2018-02-21T19:32:51.273Z,1021.2
2018-02-21T19:55:51.422Z,1021.3
2018-02-21T20:06:37.844Z,1021.3
2018-02-21T20:27:43.848Z,1021.4
2018-02-21T20:39:44.444Z,1021.5
2018-02-21T21:20:32.115Z,1021.7
2018-02-21T21:46:50.278Z,1021.8
2018-02-21T22:37:01.543Z,1021.7
2018-02-21T23:29:59.840Z,1021.7
2018-02-21T23:58:01.987Z,1021.8
